Airfield :
LOGIN :

Register | Disclaimer

   EN    FR    IT 

 










Legend :    VFR   Marginal VFR   IFR   Intensive IFR   Very Intensive IFR
Visi :
Ceiling :
>= 8 km
>= 3000ft
5 to 8 km
1000 to 3000 ft
1500m to 5 km
500 to 1000 ft
800 to 1500m
200 to 500 ft
< 800m
< 200 ft
Symbols :   Thunderstorms  Fog  Heavy snow  Heavy precipitations  Wind > 20 kt
SIGMETs :     Misc.  Thunderstorms  Icing  Turbulence  Mountain Waves  Volcanic Ashes






- Airport Elevation : 39 ft
- IATA code : ANR


EBAW - Anvers / Antwerpen Deurne

CURRENT METAR :
  • 280250Z AUTO 19007KT 7000 DZ BKN006/// OVC007/// 07/07 Q1009

EXPIRED METARs :
  • 280220Z AUTO 20007KT 9999 DZ SCT006/// BKN007/// OVC009/// 08/06 Q1009
  • 280150Z AUTO 20009KT 9999 -RA FEW009/// BKN010/// OVC013/// 07/06 Q1009
  • 272220Z 14005KT 9999 OVC018 07/06 Q1010 NOSIG
  • 280120Z AUTO 20009KT 9999 -RA SCT012/// OVC015/// 08/06 Q1009
  • 280050Z AUTO 20011KT 9999 -SHRA OVC017/// 08/06 Q1009

TAF TAF EBAW
Valid from the 28 at 03:00 until the 28 at 12:00 UTC


280200Z 2803/2812 20008KT 7000 -RA SCT008 BKN011
TEMPO 2803/2812 4000 -RADZ SCT005 BKN007
PROB30
TEMPO 2806/2811 2500 DZ BKN004



MET'MAP, your aeronautical weather chart ! - Copyright ORBIFLY December 2007 - Disclaimer

ORBIFLY MET'MAP TEAM :

Programming & Development : Alexandra Zaïnal
Original concept : Baudouin d'Aumeries
Technical & hardware support : Manuel Goepfert
Assistance : Marc-Olivier Méhu




SOURCES & CREDITS :

   NOAA